sensor_id;sensor_type;location;lat;lon;timestamp;pressure;altitude;pressure_sealevel;temperature;humidity
66273;BME280;58450;52.150;4.466;2022-08-01T00:02:15;101748.19;;;18.06;100.00
66273;BME280;58450;52.150;4.466;2022-08-01T00:04:42;101747.56;;;18.04;100.00
66273;BME280;58450;52.150;4.466;2022-08-01T00:07:11;101749.91;;;18.00;100.00
66273;BME280;58450;52.150;4.466;2022-08-01T00:09:39;101747.34;;;17.99;100.00
66273;BME280;58450;52.150;4.466;2022-08-01T00:12:06;101754.91;;;17.97;100.00
66273;BME280;58450;52.150;4.466;2022-08-01T00:14:34;101756.38;;;17.93;100.00
66273;BME280;58450;52.150;4.466;2022-08-01T00:17:02;101748.44;;;17.91;100.00
66273;BME280;58450;52.150;4.466;2022-08-01T00:19:30;101753.66;;;17.93;100.00
66273;BME280;58450;52.150;4.466;2022-08-01T00:21:57;101759.09;;;17.93;100.00
66273;BME280;58450;52.150;4.466;2022-08-01T00:24:26;101755.38;;;17.87;100.00
66273;BME280;58450;52.150;4.466;2022-08-01T00:26:54;101755.34;;;17.80;100.00
66273;BME280;58450;52.150;4.466;2022-08-01T00:29:21;101760.19;;;17.78;100.00
66273;BME280;58450;52.150;4.466;2022-08-01T00:31:49;101752.63;;;17.80;100.00
66273;BME280;58450;52.150;4.466;2022-08-01T00:34:16;101763.34;;;17.82;100.00
66273;BME280;58450;52.150;4.466;2022-08-01T00:36:44;101760.59;;;17.82;100.00
66273;BME280;58450;52.150;4.466;2022-08-01T00:39:12;101758.50;;;17.84;100.00
66273;BME280;58450;52.150;4.466;2022-08-01T00:41:41;101754.13;;;17.83;100.00
66273;BME280;58450;52.150;4.466;2022-08-01T00:44:08;101769.59;;;17.82;100.00
66273;BME280;58450;52.150;4.466;2022-08-01T00:46:36;101756.41;;;17.79;100.00
66273;BME280;58450;52.150;4.466;2022-08-01T00:49:04;101749.09;;;17.80;100.00
66273;BME280;58450;52.150;4.466;2022-08-01T00:51:32;101756.41;;;17.79;100.00
66273;BME280;58450;52.150;4.466;2022-08-01T00:54:00;101755.16;;;17.82;100.00
66273;BME280;58450;52.150;4.466;2022-08-01T00:56:28;101761.44;;;17.82;100.00
66273;BME280;58450;52.150;4.466;2022-08-01T00:58:58;101765.00;;;17.83;100.00
66273;BME280;58450;52.150;4.466;2022-08-01T01:01:25;101767.50;;;17.84;100.00
66273;BME280;58450;52.150;4.466;2022-08-01T01:03:53;101758.09;;;17.80;100.00
66273;BME280;58450;52.150;4.466;2022-08-01T01:06:28;101760.41;;;17.77;100.00
66273;BME280;58450;52.150;4.466;2022-08-01T01:09:17;101759.16;;;17.72;100.00
66273;BME280;58450;52.150;4.466;2022-08-01T01:12:01;101757.69;;;17.70;100.00
66273;BME280;58450;52.150;4.466;2022-08-01T01:14:44;101757.50;;;17.71;100.00
66273;BME280;58450;52.150;4.466;2022-08-01T01:17:24;101757.25;;;17.73;100.00
66273;BME280;58450;52.150;4.466;2022-08-01T01:20:00;101760.41;;;17.77;100.00
66273;BME280;58450;52.150;4.466;2022-08-01T01:22:46;101746.78;;;17.77;100.00
66273;BME280;58450;52.150;4.466;2022-08-01T01:25:35;101749.09;;;17.73;100.00
66273;BME280;58450;52.150;4.466;2022-08-01T01:28:14;101749.94;;;17.73;100.00
66273;BME280;58450;52.150;4.466;2022-08-01T01:30:50;101742.16;;;17.77;100.00
66273;BME280;58450;52.150;4.466;2022-08-01T01:33:23;101749.72;;;17.82;100.00
66273;BME280;58450;52.150;4.466;2022-08-01T01:35:59;101747.41;;;17.79;100.00
66273;BME280;58450;52.150;4.466;2022-08-01T01:38:29;101754.53;;;17.80;100.00
66273;BME280;58450;52.150;4.466;2022-08-01T01:41:02;101756.22;;;17.81;100.00
66273;BME280;58450;52.150;4.466;2022-08-01T01:43:32;101745.94;;;17.76;100.00
66273;BME280;58450;52.150;4.466;2022-08-01T01:46:04;101753.72;;;17.72;100.00
66273;BME280;58450;52.150;4.466;2022-08-01T01:48:33;101756.63;;;17.71;100.00
66273;BME280;58450;52.150;4.466;2022-08-01T01:51:03;101753.09;;;17.70;100.00
66273;BME280;58450;52.150;4.466;2022-08-01T01:53:33;101746.78;;;17.70;100.00
66273;BME280;58450;52.150;4.466;2022-08-01T01:56:03;101750.16;;;17.65;100.00
66273;BME280;58450;52.150;4.466;2022-08-01T01:58:32;101760.63;;;17.68;100.00
66273;BME280;58450;52.150;4.466;2022-08-01T02:01:03;101755.63;;;17.65;100.00
66273;BME280;58450;52.150;4.466;2022-08-01T02:03:32;101749.34;;;17.65;100.00
66273;BME280;58450;52.150;4.466;2022-08-01T02:06:03;101754.97;;;17.70;100.00
66273;BME280;58450;52.150;4.466;2022-08-01T02:08:32;101755.19;;;17.68;100.00
66273;BME280;58450;52.150;4.466;2022-08-01T02:11:03;101758.09;;;17.67;100.00
66273;BME280;58450;52.150;4.466;2022-08-01T02:14:03;101749.53;;;17.63;100.00
66273;BME280;58450;52.150;4.466;2022-08-01T02:16:34;101753.31;;;17.62;100.00
66273;BME280;58450;52.150;4.466;2022-08-01T02:19:04;101758.97;;;17.61;100.00
66273;BME280;58450;52.150;4.466;2022-08-01T02:21:37;101761.91;;;17.59;100.00
66273;BME280;58450;52.150;4.466;2022-08-01T02:24:13;101755.84;;;17.57;100.00
66273;BME280;58450;52.150;4.466;2022-08-01T02:26:48;101752.47;;;17.55;100.00
66273;BME280;58450;52.150;4.466;2022-08-01T02:29:22;101752.09;;;17.51;100.00
66273;BME280;58450;52.150;4.466;2022-08-01T02:31:56;101747.06;;;17.48;100.00
66273;BME280;58450;52.150;4.466;2022-08-01T02:34:27;101753.31;;;17.49;100.00
66273;BME280;58450;52.150;4.466;2022-08-01T02:36:58;101748.75;;;17.49;100.00
66273;BME280;58450;52.150;4.466;2022-08-01T02:39:28;101754.19;;;17.49;100.00
66273;BME280;58450;52.150;4.466;2022-08-01T02:42:04;101760.03;;;17.46;100.00
66273;BME280;58450;52.150;4.466;2022-08-01T02:44:37;101761.50;;;17.42;100.00
66273;BME280;58450;52.150;4.466;2022-08-01T02:47:08;101764.22;;;17.35;100.00
66273;BME280;58450;52.150;4.466;2022-08-01T02:49:39;101764.88;;;17.31;100.00
66273;BME280;58450;52.150;4.466;2022-08-01T02:52:13;101761.72;;;17.27;100.00
66273;BME280;58450;52.150;4.466;2022-08-01T02:54:45;101762.13;;;17.24;100.00
66273;BME280;58450;52.150;4.466;2022-08-01T02:57:16;101767.16;;;17.20;100.00
66273;BME280;58450;52.150;4.466;2022-08-01T02:59:46;101760.88;;;17.13;100.00
66273;BME280;58450;52.150;4.466;2022-08-01T03:02:16;101777.00;;;17.15;100.00
66273;BME280;58450;52.150;4.466;2022-08-01T03:04:47;101773.44;;;17.14;100.00
66273;BME280;58450;52.150;4.466;2022-08-01T03:07:18;101775.09;;;17.15;100.00
66273;BME280;58450;52.150;4.466;2022-08-01T03:09:48;101768.00;;;17.14;100.00
66273;BME280;58450;52.150;4.466;2022-08-01T03:12:19;101778.47;;;17.10;100.00
66273;BME280;58450;52.150;4.466;2022-08-01T03:14:52;101780.34;;;17.10;100.00
66273;BME280;58450;52.150;4.466;2022-08-01T03:17:25;101776.38;;;17.12;100.00
66273;BME280;58450;52.150;4.466;2022-08-01T03:19:57;101781.41;;;17.16;100.00
66273;BME280;58450;52.150;4.466;2022-08-01T03:22:27;101777.22;;;17.20;100.00
66273;BME280;58450;52.150;4.466;2022-08-01T03:24:57;101778.03;;;17.20;100.00
66273;BME280;58450;52.150;4.466;2022-08-01T03:27:27;101778.66;;;17.22;100.00
66273;BME280;58450;52.150;4.466;2022-08-01T03:29:58;101776.56;;;17.24;100.00
66273;BME280;58450;52.150;4.466;2022-08-01T03:32:31;101781.59;;;17.27;100.00
66273;BME280;58450;52.150;4.466;2022-08-01T03:34:58;101775.94;;;17.29;100.00
66273;BME280;58450;52.150;4.466;2022-08-01T03:37:28;101771.34;;;17.30;100.00
66273;BME280;58450;52.150;4.466;2022-08-01T03:40:04;101768.22;;;17.33;100.00
66273;BME280;58450;52.150;4.466;2022-08-01T03:42:40;101767.97;;;17.34;100.00
66273;BME280;58450;52.150;4.466;2022-08-01T03:45:19;101769.88;;;17.34;100.00
66273;BME280;58450;52.150;4.466;2022-08-01T03:47:53;101769.47;;;17.37;100.00
66273;BME280;58450;52.150;4.466;2022-08-01T03:50:26;101776.78;;;17.36;100.00
66273;BME280;58450;52.150;4.466;2022-08-01T03:52:57;101779.94;;;17.40;100.00
66273;BME280;58450;52.150;4.466;2022-08-01T03:55:28;101771.53;;;17.41;100.00
66273;BME280;58450;52.150;4.466;2022-08-01T03:57:58;101771.97;;;17.45;100.00
66273;BME280;58450;52.150;4.466;2022-08-01T04:00:27;101773.22;;;17.42;100.00
66273;BME280;58450;52.150;4.466;2022-08-01T04:02:56;101777.22;;;17.40;100.00
66273;BME280;58450;52.150;4.466;2022-08-01T04:05:25;101775.31;;;17.40;100.00
66273;BME280;58450;52.150;4.466;2022-08-01T04:07:52;101769.88;;;17.40;100.00
66273;BME280;58450;52.150;4.466;2022-08-01T04:10:22;101766.31;;;17.40;100.00
66273;BME280;58450;52.150;4.466;2022-08-01T04:12:50;101766.53;;;17.38;100.00
66273;BME280;58450;52.150;4.466;2022-08-01T04:15:18;101775.72;;;17.37;100.00
66273;BME280;58450;52.150;4.466;2022-08-01T04:17:46;101774.50;;;17.40;100.00
66273;BME280;58450;52.150;4.466;2022-08-01T04:20:15;101775.31;;;17.40;100.00
66273;BME280;58450;52.150;4.466;2022-08-01T04:22:43;101772.41;;;17.42;100.00
66273;BME280;58450;52.150;4.466;2022-08-01T04:25:12;101783.50;;;17.47;100.00
66273;BME280;58450;52.150;4.466;2022-08-01T04:27:47;101783.88;;;17.51;100.00
66273;BME280;58450;52.150;4.466;2022-08-01T04:30:17;101782.44;;;17.48;100.00
66273;BME280;58450;52.150;4.466;2022-08-01T04:32:49;101784.94;;;17.50;100.00
66273;BME280;58450;52.150;4.466;2022-08-01T04:35:19;101786.84;;;17.49;100.00
66273;BME280;58450;52.150;4.466;2022-08-01T04:37:48;101788.72;;;17.49;100.00
66273;BME280;58450;52.150;4.466;2022-08-01T04:40:19;101791.00;;;17.52;100.00
66273;BME280;58450;52.150;4.466;2022-08-01T04:42:48;101788.50;;;17.57;100.00
66273;BME280;58450;52.150;4.466;2022-08-01T04:45:17;101793.72;;;17.65;100.00
66273;BME280;58450;52.150;4.466;2022-08-01T04:47:45;101789.53;;;17.69;100.00
66273;BME280;58450;52.150;4.466;2022-08-01T04:50:13;101792.44;;;17.75;100.00
66273;BME280;58450;52.150;4.466;2022-08-01T04:52:42;101797.06;;;17.81;100.00
66273;BME280;58450;52.150;4.466;2022-08-01T04:55:10;101799.34;;;17.84;100.00
66273;BME280;58450;52.150;4.466;2022-08-01T04:57:39;101804.78;;;17.84;100.00
66273;BME280;58450;52.150;4.466;2022-08-01T05:00:10;101798.94;;;17.87;100.00
66273;BME280;58450;52.150;4.466;2022-08-01T05:02:38;101803.31;;;17.88;100.00
66273;BME280;58450;52.150;4.466;2022-08-01T05:05:06;101799.97;;;17.86;100.00
66273;BME280;58450;52.150;4.466;2022-08-01T05:07:36;101803.53;;;17.86;100.00
66273;BME280;58450;52.150;4.466;2022-08-01T05:10:05;101805.19;;;17.87;100.00
66273;BME280;58450;52.150;4.466;2022-08-01T05:12:33;101807.72;;;17.89;100.00
66273;BME280;58450;52.150;4.466;2022-08-01T05:15:02;101808.97;;;17.86;100.00
66273;BME280;58450;52.150;4.466;2022-08-01T05:17:30;101808.16;;;17.86;100.00
66273;BME280;58450;52.150;4.466;2022-08-01T05:19:57;101804.78;;;17.84;100.00
66273;BME280;58450;52.150;4.466;2022-08-01T05:22:25;101806.03;;;17.81;100.00
66273;BME280;58450;52.150;4.466;2022-08-01T05:24:52;101800.81;;;17.80;100.00
66273;BME280;58450;52.150;4.466;2022-08-01T05:27:21;101813.38;;;17.81;100.00
66273;BME280;58450;52.150;4.466;2022-08-01T05:29:49;101811.28;;;17.83;100.00
66273;BME280;58450;52.150;4.466;2022-08-01T05:32:16;101810.88;;;17.86;100.00
66273;BME280;58450;52.150;4.466;2022-08-01T05:34:44;101814.63;;;17.92;100.00
66273;BME280;58450;52.150;4.466;2022-08-01T05:37:12;101817.53;;;17.97;100.00
66273;BME280;58450;52.150;4.466;2022-08-01T05:39:39;101828.88;;;18.00;100.00
66273;BME280;58450;52.150;4.466;2022-08-01T05:42:07;101831.78;;;17.99;100.00
66273;BME280;58450;52.150;4.466;2022-08-01T05:44:35;101828.66;;;17.95;100.00
66273;BME280;58450;52.150;4.466;2022-08-01T05:47:03;101841.41;;;17.95;100.00
66273;BME280;58450;52.150;4.466;2022-08-01T05:49:31;101827.81;;;17.95;100.00
66273;BME280;58450;52.150;4.466;2022-08-01T05:51:58;101844.78;;;17.97;100.00
66273;BME280;58450;52.150;4.466;2022-08-01T05:54:27;101838.69;;;17.95;100.00
66273;BME280;58450;52.150;4.466;2022-08-01T05:56:55;101841.41;;;17.95;100.00
66273;BME280;58450;52.150;4.466;2022-08-01T05:59:25;101847.53;;;17.90;100.00
66273;BME280;58450;52.150;4.466;2022-08-01T06:01:54;101843.75;;;17.91;100.00
66273;BME280;58450;52.150;4.466;2022-08-01T06:04:21;101839.97;;;17.85;100.00
66273;BME280;58450;52.150;4.466;2022-08-01T06:06:49;101840.19;;;17.84;100.00
66273;BME280;58450;52.150;4.466;2022-08-01T06:09:17;101842.28;;;17.88;100.00
66273;BME280;58450;52.150;4.466;2022-08-01T06:11:44;101839.78;;;18.00;100.00
66273;BME280;58450;52.150;4.466;2022-08-01T06:14:12;101835.78;;;18.03;100.00
66273;BME280;58450;52.150;4.466;2022-08-01T06:16:39;101844.56;;;18.19;100.00
66273;BME280;58450;52.150;4.466;2022-08-01T06:19:08;101847.00;;;18.34;100.00
66273;BME280;58450;52.150;4.466;2022-08-01T06:21:35;101855.97;;;18.54;100.00
66273;BME280;58450;52.150;4.466;2022-08-01T06:24:04;101857.63;;;18.55;100.00
66273;BME280;58450;52.150;4.466;2022-08-01T06:26:31;101859.06;;;18.65;100.00
66273;BME280;58450;52.150;4.466;2022-08-01T06:28:59;101871.59;;;18.79;100.00
66273;BME280;58450;52.150;4.466;2022-08-01T06:31:26;101873.88;;;18.82;100.00
66273;BME280;58450;52.150;4.466;2022-08-01T06:33:54;101865.09;;;18.80;100.00
66273;BME280;58450;52.150;4.466;2022-08-01T06:36:24;101866.38;;;18.71;100.00
66273;BME280;58450;52.150;4.466;2022-08-01T06:38:52;101867.63;;;18.75;100.00
66273;BME280;58450;52.150;4.466;2022-08-01T06:41:20;101865.97;;;18.67;100.00
66273;BME280;58450;52.150;4.466;2022-08-01T06:43:47;101860.44;;;18.87;100.00
66273;BME280;58450;52.150;4.466;2022-08-01T06:46:14;101867.28;;;19.03;100.00
66273;BME280;58450;52.150;4.466;2022-08-01T06:48:42;101867.16;;;19.24;100.00
66273;BME280;58450;52.150;4.466;2022-08-01T06:51:09;101869.41;;;19.33;100.00
66273;BME280;58450;52.150;4.466;2022-08-01T06:53:44;101873.66;;;19.55;100.00
66273;BME280;58450;52.150;4.466;2022-08-01T06:56:11;101867.19;;;19.74;100.00
66273;BME280;58450;52.150;4.466;2022-08-01T06:58:39;101873.44;;;19.82;100.00
66273;BME280;58450;52.150;4.466;2022-08-01T07:01:06;101869.16;;;19.92;100.00
66273;BME280;58450;52.150;4.466;2022-08-01T07:03:35;101863.41;;;20.01;100.00
66273;BME280;58450;52.150;4.466;2022-08-01T07:06:03;101859.03;;;19.93;100.00
66273;BME280;58450;52.150;4.466;2022-08-01T07:08:31;101866.66;;;20.10;100.00
66273;BME280;58450;52.150;4.466;2022-08-01T07:10:59;101872.06;;;20.16;100.00
66273;BME280;58450;52.150;4.466;2022-08-01T07:13:28;101874.50;;;20.06;100.00
66273;BME280;58450;52.150;4.466;2022-08-01T07:15:57;101874.03;;;20.09;100.00
66273;BME280;58450;52.150;4.466;2022-08-01T07:18:24;101874.88;;;20.10;100.00
66273;BME280;58450;52.150;4.466;2022-08-01T07:20:52;101869.41;;;20.28;100.00
66273;BME280;58450;52.150;4.466;2022-08-01T07:23:19;101865.59;;;20.85;100.00
66273;BME280;58450;52.150;4.466;2022-08-01T07:25:47;101863.69;;;21.28;100.00
66273;BME280;58450;52.150;4.466;2022-08-01T07:28:18;101872.63;;;21.23;100.00
66273;BME280;58450;52.150;4.466;2022-08-01T07:30:45;101876.72;;;21.45;100.00
66273;BME280;58450;52.150;4.466;2022-08-01T07:33:13;101878.94;;;21.78;100.00
66273;BME280;58450;52.150;4.466;2022-08-01T07:35:40;101879.25;;;22.29;100.00
66273;BME280;58450;52.150;4.466;2022-08-01T07:38:07;101884.25;;;22.56;100.00
66273;BME280;58450;52.150;4.466;2022-08-01T07:40:36;101883.41;;;22.56;100.00
66273;BME280;58450;52.150;4.466;2022-08-01T07:43:03;101882.47;;;22.38;100.00
66273;BME280;58450;52.150;4.466;2022-08-01T07:45:32;101884.97;;;22.40;100.00
66273;BME280;58450;52.150;4.466;2022-08-01T07:48:02;101882.44;;;22.62;100.00
66273;BME280;58450;52.150;4.466;2022-08-01T07:50:30;101882.28;;;22.98;100.00
66273;BME280;58450;52.150;4.466;2022-08-01T07:52:59;101880.59;;;23.38;100.00
66273;BME280;58450;52.150;4.466;2022-08-01T07:55:28;101887.41;;;23.69;100.00
66273;BME280;58450;52.150;4.466;2022-08-01T07:57:55;101890.91;;;23.99;100.00
66273;BME280;58450;52.150;4.466;2022-08-01T08:00:23;101895.44;;;23.93;100.00
66273;BME280;58450;52.150;4.466;2022-08-01T08:02:52;101896.38;;;23.65;100.00
66273;BME280;58450;52.150;4.466;2022-08-01T08:05:19;101891.88;;;23.41;100.00
66273;BME280;58450;52.150;4.466;2022-08-01T08:07:47;101892.22;;;23.28;100.00
66273;BME280;58450;52.150;4.466;2022-08-01T08:10:14;101900.00;;;23.19;100.00
66273;BME280;58450;52.150;4.466;2022-08-01T08:12:42;101897.25;;;23.19;100.00
66273;BME280;58450;52.150;4.466;2022-08-01T08:15:10;101896.19;;;22.91;100.00
66273;BME280;58450;52.150;4.466;2022-08-01T08:17:37;101894.09;;;22.69;100.00
66273;BME280;58450;52.150;4.466;2022-08-01T08:20:07;101898.69;;;22.52;100.00
66273;BME280;58450;52.150;4.466;2022-08-01T08:22:36;101900.25;;;22.48;100.00
66273;BME280;58450;52.150;4.466;2022-08-01T08:25:05;101907.50;;;22.54;100.00
66273;BME280;58450;52.150;4.466;2022-08-01T08:27:34;101903.44;;;22.56;100.00
66273;BME280;58450;52.150;4.466;2022-08-01T08:30:04;101902.84;;;22.54;100.00
66273;BME280;58450;52.150;4.466;2022-08-01T08:32:33;101906.09;;;22.39;100.00
66273;BME280;58450;52.150;4.466;2022-08-01T08:35:01;101907.19;;;22.14;100.00
66273;BME280;58450;52.150;4.466;2022-08-01T08:37:30;101904.53;;;22.55;100.00
66273;BME280;58450;52.150;4.466;2022-08-01T08:39:57;101906.47;;;23.59;97.89
66273;BME280;58450;52.150;4.466;2022-08-01T08:42:25;101909.88;;;24.00;89.77
66273;BME280;58450;52.150;4.466;2022-08-01T08:44:53;101909.94;;;25.12;88.34
66273;BME280;58450;52.150;4.466;2022-08-01T08:47:21;101904.81;;;25.91;81.43
66273;BME280;58450;52.150;4.466;2022-08-01T08:49:53;101911.88;;;25.76;77.28
66273;BME280;58450;52.150;4.466;2022-08-01T08:52:22;101908.91;;;25.45;78.77
66273;BME280;58450;52.150;4.466;2022-08-01T08:54:51;101908.84;;;25.13;79.71
66273;BME280;58450;52.150;4.466;2022-08-01T08:57:20;101906.13;;;25.18;80.73
66273;BME280;58450;52.150;4.466;2022-08-01T08:59:49;101908.81;;;25.40;76.09
66273;BME280;58450;52.150;4.466;2022-08-01T09:02:20;101909.53;;;25.52;76.08
66273;BME280;58450;52.150;4.466;2022-08-01T09:04:48;101910.66;;;25.57;73.50
66273;BME280;58450;52.150;4.466;2022-08-01T09:07:16;101909.59;;;26.06;74.36
66273;BME280;58450;52.150;4.466;2022-08-01T09:09:44;101913.50;;;26.10;67.92
66273;BME280;58450;52.150;4.466;2022-08-01T09:12:17;101918.44;;;26.08;69.55
66273;BME280;58450;52.150;4.466;2022-08-01T09:14:47;101918.50;;;25.75;67.91
66273;BME280;58450;52.150;4.466;2022-08-01T09:17:15;101906.25;;;25.56;71.34
66273;BME280;58450;52.150;4.466;2022-08-01T09:19:45;101916.00;;;25.41;70.17
66273;BME280;58450;52.150;4.466;2022-08-01T09:22:14;101921.41;;;25.31;72.31
66273;BME280;58450;52.150;4.466;2022-08-01T09:24:57;101924.69;;;25.55;72.46
66273;BME280;58450;52.150;4.466;2022-08-01T09:27:28;101926.13;;;25.95;70.61
66273;BME280;58450;52.150;4.466;2022-08-01T09:30:08;101925.69;;;26.14;68.00
66273;BME280;58450;52.150;4.466;2022-08-01T09:32:52;101934.25;;;26.66;66.31
66273;BME280;58450;52.150;4.466;2022-08-01T09:35:26;101930.88;;;26.53;64.23
66273;BME280;58450;52.150;4.466;2022-08-01T09:38:11;101945.47;;;26.44;64.82
66273;BME280;58450;52.150;4.466;2022-08-01T09:40:49;101942.84;;;26.21;62.95
66273;BME280;58450;52.150;4.466;2022-08-01T09:43:20;101932.97;;;26.31;63.30
66273;BME280;58450;52.150;4.466;2022-08-01T09:45:49;101929.38;;;26.83;59.81
66273;BME280;58450;52.150;4.466;2022-08-01T09:48:17;101933.88;;;27.36;58.75
66273;BME280;58450;52.150;4.466;2022-08-01T09:50:47;101936.94;;;27.86;54.58
66273;BME280;58450;52.150;4.466;2022-08-01T09:53:16;101943.59;;;28.16;53.45
66273;BME280;58450;52.150;4.466;2022-08-01T09:55:44;101930.53;;;28.07;54.58
66273;BME280;58450;52.150;4.466;2022-08-01T09:58:12;101944.41;;;28.17;53.59
66273;BME280;58450;52.150;4.466;2022-08-01T10:00:40;101939.69;;;28.02;53.14
66273;BME280;58450;52.150;4.466;2022-08-01T10:03:21;101943.25;;;28.28;53.76
66273;BME280;58450;52.150;4.466;2022-08-01T10:05:49;101939.06;;;28.36;51.18
66273;BME280;58450;52.150;4.466;2022-08-01T10:08:19;101937.06;;;28.63;51.92
66273;BME280;58450;52.150;4.466;2022-08-01T10:11:07;101944.16;;;28.84;51.73
66273;BME280;58450;52.150;4.466;2022-08-01T10:13:35;101945.94;;;28.59;49.21
66273;BME280;58450;52.150;4.466;2022-08-01T10:16:05;101946.47;;;28.61;50.51
66273;BME280;58450;52.150;4.466;2022-08-01T10:18:34;101936.25;;;28.52;49.32
66273;BME280;58450;52.150;4.466;2022-08-01T10:21:03;101933.59;;;28.10;49.65
66273;BME280;58450;52.150;4.466;2022-08-01T10:23:34;101933.09;;;27.51;52.71
66273;BME280;58450;52.150;4.466;2022-08-01T10:26:05;101934.63;;;26.95;55.34
66273;BME280;58450;52.150;4.466;2022-08-01T10:28:35;101941.88;;;26.48;57.34
66273;BME280;58450;52.150;4.466;2022-08-01T10:31:06;101945.72;;;26.42;58.79
66273;BME280;58450;52.150;4.466;2022-08-01T10:33:36;101941.88;;;26.48;59.52
66273;BME280;58450;52.150;4.466;2022-08-01T10:36:05;101943.38;;;26.77;58.35
66273;BME280;58450;52.150;4.466;2022-08-01T10:38:34;101940.97;;;26.86;57.53
66273;BME280;58450;52.150;4.466;2022-08-01T10:41:02;101940.81;;;26.11;59.30
66273;BME280;58450;52.150;4.466;2022-08-01T10:43:31;101940.88;;;25.79;61.45
66273;BME280;58450;52.150;4.466;2022-08-01T10:45:59;101941.03;;;26.00;62.00
66273;BME280;58450;52.150;4.466;2022-08-01T10:48:34;101941.44;;;25.81;61.51
66273;BME280;58450;52.150;4.466;2022-08-01T10:51:09;101945.63;;;26.26;60.71
66273;BME280;58450;52.150;4.466;2022-08-01T10:53:46;101941.41;;;26.14;60.46
66273;BME280;58450;52.150;4.466;2022-08-01T10:56:13;101941.63;;;26.55;57.66
66273;BME280;58450;52.150;4.466;2022-08-01T10:58:44;101941.66;;;26.65;56.23
66273;BME280;58450;52.150;4.466;2022-08-01T11:01:15;101950.50;;;26.62;54.81
66273;BME280;58450;52.150;4.466;2022-08-01T11:04:07;101954.88;;;26.53;56.40
66273;BME280;58450;52.150;4.466;2022-08-01T11:06:42;101954.88;;;26.48;58.65
66273;BME280;58450;52.150;4.466;2022-08-01T11:09:22;101964.00;;;26.53;59.76
66273;BME280;58450;52.150;4.466;2022-08-01T11:12:01;101967.50;;;26.38;59.37
66273;BME280;58450;52.150;4.466;2022-08-01T11:14:33;101966.47;;;26.12;59.95
66273;BME280;58450;52.150;4.466;2022-08-01T11:17:32;101968.22;;;25.53;60.15
66273;BME280;58450;52.150;4.466;2022-08-01T11:20:07;101959.97;;;25.91;61.40
66273;BME280;58450;52.150;4.466;2022-08-01T11:26:11;101964.13;;;25.88;59.72
66273;BME280;58450;52.150;4.466;2022-08-01T11:28:41;101952.06;;;26.00;59.20
66273;BME280;58450;52.150;4.466;2022-08-01T11:31:30;101953.38;;;26.83;56.78
66273;BME280;58450;52.150;4.466;2022-08-01T11:33:59;101952.44;;;27.51;54.10
66273;BME280;58450;52.150;4.466;2022-08-01T11:36:28;101964.34;;;27.67;53.19
66273;BME280;58450;52.150;4.466;2022-08-01T11:39:16;101953.25;;;27.47;53.03
66273;BME280;58450;52.150;4.466;2022-08-01T11:41:48;101966.53;;;27.50;53.90
66273;BME280;58450;52.150;4.466;2022-08-01T11:44:20;101959.88;;;27.46;53.51
66273;BME280;58450;52.150;4.466;2022-08-01T11:46:53;101958.97;;;26.98;55.26
66273;BME280;58450;52.150;4.466;2022-08-01T11:49:24;101956.84;;;25.44;59.65
66273;BME280;58450;52.150;4.466;2022-08-01T11:51:59;101956.50;;;25.13;60.61
66273;BME280;58450;52.150;4.466;2022-08-01T11:54:29;101955.22;;;26.14;59.28
66273;BME280;58450;52.150;4.466;2022-08-01T11:56:59;101954.06;;;27.26;55.99
66273;BME280;58450;52.150;4.466;2022-08-01T11:59:35;101956.53;;;27.33;54.28
66273;BME280;58450;52.150;4.466;2022-08-01T12:02:15;101966.81;;;27.90;53.71
66273;BME280;58450;52.150;4.466;2022-08-01T12:04:48;101960.00;;;28.73;50.54
66273;BME280;58450;52.150;4.466;2022-08-01T12:07:23;101961.47;;;28.50;50.53
66273;BME280;58450;52.150;4.466;2022-08-01T12:10:00;101967.06;;;28.24;50.51
66273;BME280;58450;52.150;4.466;2022-08-01T12:12:30;101956.56;;;27.95;50.39
66273;BME280;58450;52.150;4.466;2022-08-01T12:15:03;101967.91;;;27.37;51.86
66273;BME280;58450;52.150;4.466;2022-08-01T12:17:34;101965.09;;;27.26;51.32
66273;BME280;58450;52.150;4.466;2022-08-01T12:20:06;101968.41;;;27.18;52.47
66273;BME280;58450;52.150;4.466;2022-08-01T12:22:37;101963.19;;;27.42;49.14
66273;BME280;58450;52.150;4.466;2022-08-01T12:25:07;101955.44;;;27.29;50.06
66273;BME280;58450;52.150;4.466;2022-08-01T12:27:38;101966.28;;;27.67;51.06
66273;BME280;58450;52.150;4.466;2022-08-01T12:30:08;101971.22;;;28.06;50.94
66273;BME280;58450;52.150;4.466;2022-08-01T12:32:38;101966.34;;;28.74;49.10
66273;BME280;58450;52.150;4.466;2022-08-01T12:35:08;101968.81;;;28.86;48.50
66273;BME280;58450;52.150;4.466;2022-08-01T12:37:40;101968.50;;;29.43;47.29
66273;BME280;58450;52.150;4.466;2022-08-01T12:40:14;101969.31;;;29.48;45.54
66273;BME280;58450;52.150;4.466;2022-08-01T12:42:45;101971.63;;;28.75;45.32
66273;BME280;58450;52.150;4.466;2022-08-01T12:45:16;101964.31;;;27.93;46.79
66273;BME280;58450;52.150;4.466;2022-08-01T12:47:47;101968.19;;;28.18;48.66
66273;BME280;58450;52.150;4.466;2022-08-01T12:50:19;101971.69;;;28.50;47.44
66273;BME280;58450;52.150;4.466;2022-08-01T12:52:49;101962.28;;;29.16;45.43
66273;BME280;58450;52.150;4.466;2022-08-01T12:55:19;101962.66;;;28.99;45.16
66273;BME280;58450;52.150;4.466;2022-08-01T12:57:49;101954.47;;;29.63;43.03
66273;BME280;58450;52.150;4.466;2022-08-01T13:00:30;101958.66;;;29.61;43.57
66273;BME280;58450;52.150;4.466;2022-08-01T13:03:01;101957.56;;;29.91;41.86
66273;BME280;58450;52.150;4.466;2022-08-01T13:05:41;101960.56;;;29.26;42.64